createdAt,value
2022-11-08T00:03:03.033Z,100624.44
2022-11-08T00:08:24.867Z,100631.22
2022-11-08T00:13:46.664Z,100631.16
2022-11-08T00:19:08.483Z,100633.53
2022-11-08T00:24:30.300Z,100630.13
2022-11-08T00:29:52.093Z,100620.69
2022-11-08T00:35:13.947Z,100634.38
2022-11-08T00:40:35.781Z,100622.53
2022-11-08T00:45:57.774Z,100626.72
2022-11-08T00:51:19.680Z,100631.75
2022-11-08T00:56:41.834Z,100630.88
2022-11-08T01:02:03.794Z,100631.69
2022-11-08T01:07:25.921Z,100605.34
2022-11-08T01:12:47.745Z,100628.38
2022-11-08T01:18:11.095Z,100611.34
2022-11-08T01:23:33.527Z,100612.13
2022-11-08T01:28:56.451Z,100617.16
2022-11-08T01:34:18.288Z,100620.59
2022-11-08T01:39:40.087Z,100614.59
2022-11-08T01:45:08.387Z,100611.94
2022-11-08T01:50:30.355Z,100614.50
2022-11-08T01:55:52.887Z,100609.22
2022-11-08T02:01:15.209Z,100605.69
2022-11-08T02:06:39.099Z,100607.41
2022-11-08T02:12:00.924Z,100622.81
2022-11-08T02:17:22.762Z,100596.31
2022-11-08T02:23:04.179Z,100603.16
2022-11-08T02:28:26.299Z,100611.75
2022-11-08T02:33:49.326Z,100614.28
2022-11-08T02:39:11.166Z,100610.81
2022-11-08T02:44:32.997Z,100609.09
2022-11-08T02:49:54.826Z,100595.34
2022-11-08T02:55:16.633Z,100599.53
2022-11-08T03:00:39.596Z,100611.34
2022-11-08T03:06:01.461Z,100605.56
2022-11-08T03:11:23.265Z,100612.13
2022-11-08T03:16:45.138Z,100609.56
2022-11-08T03:22:06.969Z,100612.94
2022-11-08T03:27:29.078Z,100611.19
2022-11-08T03:32:50.868Z,100612.75
2022-11-08T03:38:12.672Z,100610.19
2022-11-08T03:43:34.729Z,100621.34
2022-11-08T03:48:56.539Z,100624.13
2022-11-08T03:54:18.317Z,100625.88
2022-11-08T03:59:40.101Z,100625.03
2022-11-08T04:05:02.060Z,100630.06
2022-11-08T04:10:23.937Z,100624.88
2022-11-08T04:15:46.952Z,100607.59
2022-11-08T04:21:16.548Z,100609.38
2022-11-08T04:26:39.631Z,100607.75
2022-11-08T04:32:01.449Z,100597.34
2022-11-08T04:37:23.362Z,100605.84
2022-11-08T04:42:45.202Z,100606.88
2022-11-08T04:48:07.047Z,100610.34
2022-11-08T04:53:29.120Z,100614.56
2022-11-08T04:58:53.937Z,100612.06
2022-11-08T05:04:15.848Z,100614.72
2022-11-08T05:09:37.641Z,100611.53
2022-11-08T05:14:59.508Z,100612.66
2022-11-08T05:20:21.342Z,100604.34
2022-11-08T05:25:43.177Z,100617.34
2022-11-08T05:31:05.147Z,100615.88
2022-11-08T05:36:28.133Z,100630.56
2022-11-08T05:41:50.034Z,100630.75
2022-11-08T05:47:11.848Z,100635.09
2022-11-08T05:52:33.666Z,100635.91
2022-11-08T05:57:55.498Z,100636.00
2022-11-08T06:03:20.923Z,100643.28
2022-11-08T06:08:49.992Z,100645.84
2022-11-08T06:14:13.464Z,100639.78
2022-11-08T06:19:35.328Z,100639.69
2022-11-08T06:24:58.609Z,100637.81
2022-11-08T06:30:20.476Z,100641.38
2022-11-08T06:35:42.731Z,100647.06
2022-11-08T06:41:04.589Z,100646.09
2022-11-08T06:46:26.668Z,100642.28
2022-11-08T06:51:48.498Z,100648.13
2022-11-08T06:57:10.337Z,100651.47
2022-11-08T07:02:32.295Z,100662.31
2022-11-08T07:07:54.522Z,100671.75
2022-11-08T07:13:16.621Z,100670.13
2022-11-08T07:18:38.866Z,100683.16
2022-11-08T07:24:00.747Z,100675.50
2022-11-08T07:29:22.650Z,100672.13
2022-11-08T07:34:44.496Z,100678.03
2022-11-08T07:40:07.109Z,100674.50
2022-11-08T07:45:28.939Z,100675.19
2022-11-08T07:50:51.521Z,100659.97
2022-11-08T07:56:13.391Z,100656.78
2022-11-08T08:01:35.979Z,100669.75
2022-11-08T08:06:58.961Z,100664.03
2022-11-08T08:12:20.774Z,100656.28
2022-11-08T08:17:42.575Z,100662.63
2022-11-08T08:23:04.803Z,100657.06
2022-11-08T08:28:26.611Z,100660.25
2022-11-08T08:33:48.462Z,100644.94
2022-11-08T08:39:10.406Z,100654.25
2022-11-08T08:44:32.211Z,100649.34
2022-11-08T08:49:54.441Z,100659.25
2022-11-08T08:55:16.595Z,100658.41
2022-11-08T09:06:20.287Z,100667.22
2022-11-08T09:11:43.141Z,100667.78
2022-11-08T09:17:04.962Z,100668.97
2022-11-08T09:22:26.797Z,100661.34
2022-11-08T09:27:48.673Z,100674.00
2022-11-08T09:33:10.549Z,100667.91
2022-11-08T09:38:32.732Z,100674.66
2022-11-08T09:44:00.284Z,100675.53
2022-11-08T09:49:42.202Z,100678.13
2022-11-08T09:55:28.537Z,100675.59
2022-11-08T10:00:50.447Z,100679.13
2022-11-08T10:06:30.666Z,100675.72
2022-11-08T10:12:00.321Z,100674.72
2022-11-08T10:17:24.947Z,100656.41
2022-11-08T10:23:05.435Z,100666.75
2022-11-08T10:28:36.721Z,100661.94
2022-11-08T10:34:00.745Z,100663.78
2022-11-08T10:39:38.092Z,100654.47
2022-11-08T10:45:00.225Z,100652.28
2022-11-08T10:50:50.007Z,100645.78
2022-11-08T10:56:11.806Z,100644.94
2022-11-08T11:01:33.668Z,100640.69
2022-11-08T11:07:02.098Z,100633.38
2022-11-08T11:12:24.159Z,100619.06
2022-11-08T11:17:46.818Z,100629.94
2022-11-08T11:23:11.313Z,100619.59
2022-11-08T11:28:34.105Z,100612.78
2022-11-08T11:33:56.177Z,100613.78
2022-11-08T11:39:47.593Z,100620.03
2022-11-08T11:45:17.514Z,100604.19
2022-11-08T11:50:44.286Z,100604.84
2022-11-08T11:56:24.805Z,100611.75
2022-11-08T12:02:08.019Z,100613.38
2022-11-08T12:07:31.421Z,100610.44
2022-11-08T12:13:22.962Z,100607.59
2022-11-08T12:18:49.430Z,100606.88
2022-11-08T12:24:26.641Z,100608.88
2022-11-08T12:30:35.893Z,100606.34
2022-11-08T12:36:11.734Z,100602.63
2022-11-08T12:42:01.847Z,100590.94
2022-11-08T12:47:39.302Z,100585.44
2022-11-08T12:53:20.960Z,100590.09
2022-11-08T12:58:46.031Z,100593.84
2022-11-08T13:04:17.643Z,100599.97
2022-11-08T13:09:57.689Z,100585.56
2022-11-08T13:15:22.511Z,100590.56
2022-11-08T13:20:48.863Z,100580.28
2022-11-08T13:26:20.120Z,100575.59
2022-11-08T13:31:44.970Z,100574.50
2022-11-08T13:37:37.264Z,100572.59
2022-11-08T13:43:19.612Z,100560.97
2022-11-08T13:48:41.790Z,100565.69
2022-11-08T13:54:23.841Z,100569.19
2022-11-08T13:59:45.607Z,100568.56
2022-11-08T14:05:22.708Z,100562.59
2022-11-08T14:11:05.712Z,100569.38
2022-11-08T14:16:33.349Z,100573.38
2022-11-08T14:21:58.091Z,100581.47
2022-11-08T14:27:38.299Z,100569.94
2022-11-08T14:33:27.623Z,100575.56
2022-11-08T14:38:59.164Z,100569.28
2022-11-08T14:44:22.137Z,100573.41
2022-11-08T14:49:47.780Z,100585.09
2022-11-08T14:55:12.214Z,100589.03
2022-11-08T15:00:34.069Z,100593.94
2022-11-08T15:06:00.986Z,100584.22
2022-11-08T15:11:30.721Z,100575.06
2022-11-08T15:16:58.524Z,100576.28
2022-11-08T15:22:30.281Z,100582.78
2022-11-08T15:28:13.207Z,100576.69
2022-11-08T15:33:37.441Z,100584.69
2022-11-08T15:39:00.374Z,100578.00
2022-11-08T15:44:24.580Z,100573.09
2022-11-08T15:49:46.388Z,100572.63
2022-11-08T15:55:08.712Z,100563.50
2022-11-08T16:00:33.269Z,100573.97
2022-11-08T16:05:55.682Z,100574.00
2022-11-08T16:11:21.516Z,100572.56
2022-11-08T16:16:43.974Z,100571.34
2022-11-08T16:22:05.791Z,100575.13
2022-11-08T16:27:27.625Z,100582.38
2022-11-08T16:32:49.506Z,100583.63
2022-11-08T16:38:11.346Z,100583.94
2022-11-08T16:43:33.656Z,100575.94
2022-11-08T16:48:58.073Z,100577.41
2022-11-08T16:54:21.756Z,100582.72
2022-11-08T16:59:43.584Z,100586.53
2022-11-08T17:05:05.751Z,100588.25
2022-11-08T17:10:29.680Z,100581.88
2022-11-08T17:15:51.600Z,100587.28
2022-11-08T17:21:43.172Z,100577.25
2022-11-08T17:26:57.021Z,100579.09
2022-11-08T17:32:18.885Z,100585.41
2022-11-08T17:37:41.001Z,100578.16
2022-11-08T17:43:02.817Z,100584.59
2022-11-08T17:48:25.522Z,100583.97
2022-11-08T17:53:47.404Z,100595.50
2022-11-08T17:59:09.207Z,100596.41
2022-11-08T18:04:31.137Z,100586.47
2022-11-08T18:09:52.982Z,100584.22
2022-11-08T18:15:14.838Z,100579.31
2022-11-08T18:20:36.866Z,100591.47
2022-11-08T18:25:58.963Z,100599.38
2022-11-08T18:31:21.757Z,100595.22
2022-11-08T18:36:43.573Z,100592.13
2022-11-08T18:42:05.460Z,100596.53
2022-11-08T18:47:27.288Z,100594.78
2022-11-08T18:52:49.105Z,100584.94
2022-11-08T18:58:11.096Z,100589.50
2022-11-08T19:03:33.192Z,100597.94
2022-11-08T19:08:55.053Z,100592.31
2022-11-08T19:14:16.965Z,100589.88
2022-11-08T19:19:38.771Z,100603.69
2022-11-08T19:25:00.608Z,100610.81
2022-11-08T19:30:22.758Z,100609.22
2022-11-08T19:35:44.958Z,100622.31
2022-11-08T19:41:09.429Z,100616.44
2022-11-08T19:46:31.862Z,100620.00
2022-11-08T19:51:54.095Z,100613.25
2022-11-08T19:57:16.318Z,100616.72
2022-11-08T20:02:38.503Z,100623.72
2022-11-08T20:08:00.904Z,100627.25
2022-11-08T20:13:23.087Z,100627.53
2022-11-08T20:18:45.596Z,100630.22
2022-11-08T20:24:08.649Z,100622.44
2022-11-08T20:29:30.517Z,100626.75
2022-11-08T20:34:52.386Z,100618.25
2022-11-08T20:40:14.250Z,100612.41
2022-11-08T20:45:39.576Z,100610.81
2022-11-08T20:51:03.856Z,100604.06
2022-11-08T20:56:26.528Z,100608.34
2022-11-08T21:01:48.471Z,100606.78
2022-11-08T21:12:52.179Z,100595.91
2022-11-08T21:18:15.579Z,100591.72
2022-11-08T21:23:39.264Z,100597.06
2022-11-08T21:29:01.138Z,100590.31
2022-11-08T21:34:25.027Z,100598.97
2022-11-08T21:39:50.044Z,100603.34
2022-11-08T21:45:11.889Z,100601.63
2022-11-08T21:50:34.976Z,100594.09
2022-11-08T21:55:58.040Z,100596.66
2022-11-08T22:01:22.245Z,100588.97
2022-11-08T22:06:47.879Z,100602.69
2022-11-08T22:12:09.939Z,100596.81
2022-11-08T22:17:31.816Z,100599.28
2022-11-08T22:22:53.651Z,100590.88
2022-11-08T22:28:15.653Z,100593.56
2022-11-08T22:33:37.691Z,100593.41
2022-11-08T22:38:59.770Z,100601.22
2022-11-08T22:44:21.915Z,100597.97
2022-11-08T22:49:45.165Z,100608.28
2022-11-08T22:55:07.697Z,100608.34
2022-11-08T23:00:29.693Z,100612.72
2022-11-08T23:05:52.367Z,100608.38
2022-11-08T23:11:14.353Z,100606.78
2022-11-08T23:16:38.963Z,100606.03
2022-11-08T23:22:01.765Z,100594.03
2022-11-08T23:27:23.822Z,100590.66
2022-11-08T23:32:48.186Z,100591.66
2022-11-08T23:38:10.040Z,100594.25
2022-11-08T23:43:31.873Z,100590.84
2022-11-08T23:48:53.654Z,100593.50
2022-11-08T23:54:15.910Z,100594.44
2022-11-08T23:59:37.680Z,100592.78
